sensor_id;sensor_type;location;lat;lon;timestamp;temperature;humidity
72865;DHT22;61000;48.120;11.548;2023-12-14T00:00:27;5.80;99.90
72865;DHT22;61000;48.120;11.548;2023-12-14T00:02:54;5.80;99.90
72865;DHT22;61000;48.120;11.548;2023-12-14T00:09:03;5.90;99.90
72865;DHT22;61000;48.120;11.548;2023-12-14T00:11:30;5.80;99.90
72865;DHT22;61000;48.120;11.548;2023-12-14T00:13:57;5.80;99.90
72865;DHT22;61000;48.120;11.548;2023-12-14T00:16:24;5.80;99.90
72865;DHT22;61000;48.120;11.548;2023-12-14T00:18:51;5.70;99.90
72865;DHT22;61000;48.120;11.548;2023-12-14T00:21:18;5.80;99.90
72865;DHT22;61000;48.120;11.548;2023-12-14T00:23:44;5.80;99.90
72865;DHT22;61000;48.120;11.548;2023-12-14T00:26:13;5.70;99.90
72865;DHT22;61000;48.120;11.548;2023-12-14T00:28:40;5.70;99.90
72865;DHT22;61000;48.120;11.548;2023-12-14T00:31:07;5.70;99.90
72865;DHT22;61000;48.120;11.548;2023-12-14T00:33:33;5.70;99.90
72865;DHT22;61000;48.120;11.548;2023-12-14T00:36:00;5.70;99.90
72865;DHT22;61000;48.120;11.548;2023-12-14T00:38:27;5.70;99.90
72865;DHT22;61000;48.120;11.548;2023-12-14T00:40:54;5.70;99.90
72865;DHT22;61000;48.120;11.548;2023-12-14T00:43:22;5.70;99.90
72865;DHT22;61000;48.120;11.548;2023-12-14T00:45:49;5.70;99.90
72865;DHT22;61000;48.120;11.548;2023-12-14T00:48:18;5.70;99.90
72865;DHT22;61000;48.120;11.548;2023-12-14T00:50:44;5.70;99.90
72865;DHT22;61000;48.120;11.548;2023-12-14T00:53:11;5.70;99.90
72865;DHT22;61000;48.120;11.548;2023-12-14T00:55:38;5.70;99.90
72865;DHT22;61000;48.120;11.548;2023-12-14T00:58:05;5.70;99.90
72865;DHT22;61000;48.120;11.548;2023-12-14T01:00:33;5.70;99.90
72865;DHT22;61000;48.120;11.548;2023-12-14T01:03:00;5.80;99.90
72865;DHT22;61000;48.120;11.548;2023-12-14T01:05:28;5.70;99.90
72865;DHT22;61000;48.120;11.548;2023-12-14T01:07:55;5.80;99.90
72865;DHT22;61000;48.120;11.548;2023-12-14T01:10:22;5.80;99.90
72865;DHT22;61000;48.120;11.548;2023-12-14T01:12:49;5.80;99.90
72865;DHT22;61000;48.120;11.548;2023-12-14T01:15:16;5.80;99.90
72865;DHT22;61000;48.120;11.548;2023-12-14T01:17:44;5.80;99.90
72865;DHT22;61000;48.120;11.548;2023-12-14T01:20:11;5.80;99.90
72865;DHT22;61000;48.120;11.548;2023-12-14T01:22:38;5.70;99.90
72865;DHT22;61000;48.120;11.548;2023-12-14T01:25:05;5.70;99.90
72865;DHT22;61000;48.120;11.548;2023-12-14T01:27:32;5.70;99.90
72865;DHT22;61000;48.120;11.548;2023-12-14T01:29:59;5.70;99.90
72865;DHT22;61000;48.120;11.548;2023-12-14T01:32:26;5.70;99.90
72865;DHT22;61000;48.120;11.548;2023-12-14T01:34:54;5.70;99.90
72865;DHT22;61000;48.120;11.548;2023-12-14T01:37:21;5.70;99.90
72865;DHT22;61000;48.120;11.548;2023-12-14T01:39:48;5.70;99.90
72865;DHT22;61000;48.120;11.548;2023-12-14T01:42:15;5.70;99.90
72865;DHT22;61000;48.120;11.548;2023-12-14T01:44:42;5.70;99.90
72865;DHT22;61000;48.120;11.548;2023-12-14T01:47:09;5.70;99.90
72865;DHT22;61000;48.120;11.548;2023-12-14T01:49:36;5.70;99.90
72865;DHT22;61000;48.120;11.548;2023-12-14T01:52:05;5.60;99.90
72865;DHT22;61000;48.120;11.548;2023-12-14T01:54:32;5.60;99.90
72865;DHT22;61000;48.120;11.548;2023-12-14T01:56:59;5.60;99.90
72865;DHT22;61000;48.120;11.548;2023-12-14T01:59:26;5.50;99.90
72865;DHT22;61000;48.120;11.548;2023-12-14T02:01:54;5.50;99.90
72865;DHT22;61000;48.120;11.548;2023-12-14T02:04:24;5.50;99.90
72865;DHT22;61000;48.120;11.548;2023-12-14T02:06:51;5.50;99.90
72865;DHT22;61000;48.120;11.548;2023-12-14T02:09:19;5.50;99.90
72865;DHT22;61000;48.120;11.548;2023-12-14T02:11:46;5.50;99.90
72865;DHT22;61000;48.120;11.548;2023-12-14T02:14:13;5.50;99.90
72865;DHT22;61000;48.120;11.548;2023-12-14T02:16:40;5.40;99.90
72865;DHT22;61000;48.120;11.548;2023-12-14T02:19:06;5.40;99.90
72865;DHT22;61000;48.120;11.548;2023-12-14T02:21:33;5.40;99.90
72865;DHT22;61000;48.120;11.548;2023-12-14T02:24:02;5.40;99.90
72865;DHT22;61000;48.120;11.548;2023-12-14T02:26:29;5.40;99.90
72865;DHT22;61000;48.120;11.548;2023-12-14T02:28:56;5.40;99.90
72865;DHT22;61000;48.120;11.548;2023-12-14T02:31:23;5.40;99.90
72865;DHT22;61000;48.120;11.548;2023-12-14T02:33:50;5.40;99.90
72865;DHT22;61000;48.120;11.548;2023-12-14T02:36:17;5.40;99.90
72865;DHT22;61000;48.120;11.548;2023-12-14T02:38:44;5.30;99.90
72865;DHT22;61000;48.120;11.548;2023-12-14T02:41:12;5.40;99.90
72865;DHT22;61000;48.120;11.548;2023-12-14T02:43:39;5.30;99.90
72865;DHT22;61000;48.120;11.548;2023-12-14T02:46:06;5.40;99.90
72865;DHT22;61000;48.120;11.548;2023-12-14T02:48:33;5.30;99.90
72865;DHT22;61000;48.120;11.548;2023-12-14T02:51:00;5.30;99.90
72865;DHT22;61000;48.120;11.548;2023-12-14T02:53:27;5.30;99.90
72865;DHT22;61000;48.120;11.548;2023-12-14T02:55:54;5.30;99.90
72865;DHT22;61000;48.120;11.548;2023-12-14T02:58:22;5.30;99.90
72865;DHT22;61000;48.120;11.548;2023-12-14T03:00:49;5.30;99.90
72865;DHT22;61000;48.120;11.548;2023-12-14T03:03:16;5.20;99.90
72865;DHT22;61000;48.120;11.548;2023-12-14T03:05:43;5.20;99.90
72865;DHT22;61000;48.120;11.548;2023-12-14T03:08:09;5.20;99.90
72865;DHT22;61000;48.120;11.548;2023-12-14T03:10:36;5.20;99.90
72865;DHT22;61000;48.120;11.548;2023-12-14T03:13:03;5.20;99.90
72865;DHT22;61000;48.120;11.548;2023-12-14T03:15:31;5.10;99.90
72865;DHT22;61000;48.120;11.548;2023-12-14T03:17:58;5.10;99.90
72865;DHT22;61000;48.120;11.548;2023-12-14T03:20:25;5.10;99.90
72865;DHT22;61000;48.120;11.548;2023-12-14T03:22:52;5.10;99.90
72865;DHT22;61000;48.120;11.548;2023-12-14T03:25:19;5.10;99.90
72865;DHT22;61000;48.120;11.548;2023-12-14T03:27:46;5.10;99.90
72865;DHT22;61000;48.120;11.548;2023-12-14T03:30:13;5.10;99.90
72865;DHT22;61000;48.120;11.548;2023-12-14T03:32:41;5.10;99.90
72865;DHT22;61000;48.120;11.548;2023-12-14T03:35:08;5.10;99.90
72865;DHT22;61000;48.120;11.548;2023-12-14T03:37:35;5.00;99.90
72865;DHT22;61000;48.120;11.548;2023-12-14T03:40:03;5.00;99.90
72865;DHT22;61000;48.120;11.548;2023-12-14T03:42:30;5.00;99.90
72865;DHT22;61000;48.120;11.548;2023-12-14T03:44:57;5.00;99.90
72865;DHT22;61000;48.120;11.548;2023-12-14T03:47:24;5.00;99.90
72865;DHT22;61000;48.120;11.548;2023-12-14T03:49:52;5.10;99.90
72865;DHT22;61000;48.120;11.548;2023-12-14T03:52:19;5.00;99.90
72865;DHT22;61000;48.120;11.548;2023-12-14T03:54:46;5.00;99.90
72865;DHT22;61000;48.120;11.548;2023-12-14T03:57:12;5.10;99.90
72865;DHT22;61000;48.120;11.548;2023-12-14T03:59:40;5.10;99.90
72865;DHT22;61000;48.120;11.548;2023-12-14T04:02:07;5.10;99.90
72865;DHT22;61000;48.120;11.548;2023-12-14T04:04:33;5.10;99.90
72865;DHT22;61000;48.120;11.548;2023-12-14T04:07:02;5.10;99.90
72865;DHT22;61000;48.120;11.548;2023-12-14T04:09:29;5.10;99.90
72865;DHT22;61000;48.120;11.548;2023-12-14T04:11:56;5.00;99.90
72865;DHT22;61000;48.120;11.548;2023-12-14T04:14:22;5.10;99.90
72865;DHT22;61000;48.120;11.548;2023-12-14T04:16:49;5.10;99.90
72865;DHT22;61000;48.120;11.548;2023-12-14T04:19:16;5.10;99.90
72865;DHT22;61000;48.120;11.548;2023-12-14T04:21:43;5.10;99.90
72865;DHT22;61000;48.120;11.548;2023-12-14T04:24:11;5.10;99.90
72865;DHT22;61000;48.120;11.548;2023-12-14T04:26:38;5.10;99.90
72865;DHT22;61000;48.120;11.548;2023-12-14T04:29:06;5.10;99.90
72865;DHT22;61000;48.120;11.548;2023-12-14T04:31:34;5.10;99.90
72865;DHT22;61000;48.120;11.548;2023-12-14T04:34:01;5.00;99.90
72865;DHT22;61000;48.120;11.548;2023-12-14T04:36:28;5.10;99.90
72865;DHT22;61000;48.120;11.548;2023-12-14T04:38:55;5.00;99.90
72865;DHT22;61000;48.120;11.548;2023-12-14T04:41:23;5.00;99.90
72865;DHT22;61000;48.120;11.548;2023-12-14T04:43:50;5.00;99.90
72865;DHT22;61000;48.120;11.548;2023-12-14T04:46:17;5.00;99.90
72865;DHT22;61000;48.120;11.548;2023-12-14T04:48:44;5.00;99.90
72865;DHT22;61000;48.120;11.548;2023-12-14T04:51:12;5.00;99.90
72865;DHT22;61000;48.120;11.548;2023-12-14T04:53:39;5.00;99.90
72865;DHT22;61000;48.120;11.548;2023-12-14T04:56:10;5.00;99.90
72865;DHT22;61000;48.120;11.548;2023-12-14T04:58:38;4.90;99.90
72865;DHT22;61000;48.120;11.548;2023-12-14T05:01:05;5.00;99.90
72865;DHT22;61000;48.120;11.548;2023-12-14T05:03:33;5.00;99.90
72865;DHT22;61000;48.120;11.548;2023-12-14T05:06:00;5.00;99.90
72865;DHT22;61000;48.120;11.548;2023-12-14T05:08:27;5.00;99.90
72865;DHT22;61000;48.120;11.548;2023-12-14T05:10:54;5.00;99.90
72865;DHT22;61000;48.120;11.548;2023-12-14T05:13:21;5.00;99.90
72865;DHT22;61000;48.120;11.548;2023-12-14T05:15:49;5.00;99.90
72865;DHT22;61000;48.120;11.548;2023-12-14T05:18:16;5.00;99.90
72865;DHT22;61000;48.120;11.548;2023-12-14T05:20:42;4.90;99.90
72865;DHT22;61000;48.120;11.548;2023-12-14T05:23:11;5.00;99.90
72865;DHT22;61000;48.120;11.548;2023-12-14T05:25:38;5.00;99.90
72865;DHT22;61000;48.120;11.548;2023-12-14T05:28:05;4.90;99.90
72865;DHT22;61000;48.120;11.548;2023-12-14T05:30:32;4.90;99.90
72865;DHT22;61000;48.120;11.548;2023-12-14T05:33:00;4.90;99.90
72865;DHT22;61000;48.120;11.548;2023-12-14T05:35:27;5.00;99.90
72865;DHT22;61000;48.120;11.548;2023-12-14T05:37:54;4.90;99.90
72865;DHT22;61000;48.120;11.548;2023-12-14T05:40:21;4.90;99.90
72865;DHT22;61000;48.120;11.548;2023-12-14T05:42:48;4.90;99.90
72865;DHT22;61000;48.120;11.548;2023-12-14T05:45:15;4.90;99.90
72865;DHT22;61000;48.120;11.548;2023-12-14T05:47:44;4.90;99.90
72865;DHT22;61000;48.120;11.548;2023-12-14T05:50:12;4.90;99.90
72865;DHT22;61000;48.120;11.548;2023-12-14T05:52:39;4.90;99.90
72865;DHT22;61000;48.120;11.548;2023-12-14T05:55:08;4.90;99.90
72865;DHT22;61000;48.120;11.548;2023-12-14T05:57:35;5.00;99.90
72865;DHT22;61000;48.120;11.548;2023-12-14T06:00:02;4.90;99.90
72865;DHT22;61000;48.120;11.548;2023-12-14T06:02:31;4.90;99.90
72865;DHT22;61000;48.120;11.548;2023-12-14T06:04:58;5.00;99.90
72865;DHT22;61000;48.120;11.548;2023-12-14T06:07:26;4.90;99.90
72865;DHT22;61000;48.120;11.548;2023-12-14T06:09:53;4.90;99.90
72865;DHT22;61000;48.120;11.548;2023-12-14T06:12:20;5.00;99.90
72865;DHT22;61000;48.120;11.548;2023-12-14T06:14:55;5.00;99.90
72865;DHT22;61000;48.120;11.548;2023-12-14T06:17:40;5.10;99.90
72865;DHT22;61000;48.120;11.548;2023-12-14T06:20:16;5.00;99.90
72865;DHT22;61000;48.120;11.548;2023-12-14T06:22:47;5.00;99.90
72865;DHT22;61000;48.120;11.548;2023-12-14T06:25:17;5.00;99.90
72865;DHT22;61000;48.120;11.548;2023-12-14T06:27:44;5.00;99.90
72865;DHT22;61000;48.120;11.548;2023-12-14T06:30:12;5.10;99.90
72865;DHT22;61000;48.120;11.548;2023-12-14T06:32:38;5.00;99.90
72865;DHT22;61000;48.120;11.548;2023-12-14T06:35:06;5.10;99.90
72865;DHT22;61000;48.120;11.548;2023-12-14T06:37:33;5.00;99.90
72865;DHT22;61000;48.120;11.548;2023-12-14T06:40:05;5.00;99.90
72865;DHT22;61000;48.120;11.548;2023-12-14T06:42:32;5.10;99.90
72865;DHT22;61000;48.120;11.548;2023-12-14T06:45:01;5.10;99.90
72865;DHT22;61000;48.120;11.548;2023-12-14T06:47:28;5.10;99.90
72865;DHT22;61000;48.120;11.548;2023-12-14T06:49:55;5.10;99.90
72865;DHT22;61000;48.120;11.548;2023-12-14T06:52:23;5.10;99.90
72865;DHT22;61000;48.120;11.548;2023-12-14T06:54:50;5.10;99.90
72865;DHT22;61000;48.120;11.548;2023-12-14T06:57:26;5.10;99.90
72865;DHT22;61000;48.120;11.548;2023-12-14T06:59:54;5.10;99.90
72865;DHT22;61000;48.120;11.548;2023-12-14T07:02:21;5.10;99.90
72865;DHT22;61000;48.120;11.548;2023-12-14T07:04:48;5.20;99.90
72865;DHT22;61000;48.120;11.548;2023-12-14T07:07:15;5.20;99.90
72865;DHT22;61000;48.120;11.548;2023-12-14T07:09:45;5.20;99.90
72865;DHT22;61000;48.120;11.548;2023-12-14T07:12:12;5.10;99.90
72865;DHT22;61000;48.120;11.548;2023-12-14T07:14:41;5.20;99.90
72865;DHT22;61000;48.120;11.548;2023-12-14T07:17:08;5.20;99.90
72865;DHT22;61000;48.120;11.548;2023-12-14T07:19:35;5.20;99.90
72865;DHT22;61000;48.120;11.548;2023-12-14T07:22:01;5.20;99.90
72865;DHT22;61000;48.120;11.548;2023-12-14T07:24:28;5.20;99.90
72865;DHT22;61000;48.120;11.548;2023-12-14T07:26:56;5.20;99.90
72865;DHT22;61000;48.120;11.548;2023-12-14T07:29:23;5.30;99.90
72865;DHT22;61000;48.120;11.548;2023-12-14T07:31:51;5.20;99.90
72865;DHT22;61000;48.120;11.548;2023-12-14T07:34:18;5.30;99.90
72865;DHT22;61000;48.120;11.548;2023-12-14T07:36:46;5.30;99.90
72865;DHT22;61000;48.120;11.548;2023-12-14T07:39:13;5.30;99.90
72865;DHT22;61000;48.120;11.548;2023-12-14T07:41:40;5.30;99.90
72865;DHT22;61000;48.120;11.548;2023-12-14T07:44:06;5.30;99.90
72865;DHT22;61000;48.120;11.548;2023-12-14T07:46:34;5.40;99.90
72865;DHT22;61000;48.120;11.548;2023-12-14T07:49:03;5.40;99.90
72865;DHT22;61000;48.120;11.548;2023-12-14T07:51:30;5.40;99.90
72865;DHT22;61000;48.120;11.548;2023-12-14T07:53:57;5.40;99.90
72865;DHT22;61000;48.120;11.548;2023-12-14T07:56:24;5.50;99.90
72865;DHT22;61000;48.120;11.548;2023-12-14T07:58:53;5.50;99.90
72865;DHT22;61000;48.120;11.548;2023-12-14T08:01:20;5.50;99.90
72865;DHT22;61000;48.120;11.548;2023-12-14T08:03:47;5.50;99.90
72865;DHT22;61000;48.120;11.548;2023-12-14T08:06:15;5.60;99.90
72865;DHT22;61000;48.120;11.548;2023-12-14T08:08:42;5.60;99.90
72865;DHT22;61000;48.120;11.548;2023-12-14T08:11:09;5.60;99.90
72865;DHT22;61000;48.120;11.548;2023-12-14T08:13:36;5.60;99.90
72865;DHT22;61000;48.120;11.548;2023-12-14T08:16:03;5.60;99.90
72865;DHT22;61000;48.120;11.548;2023-12-14T08:18:30;5.60;99.90
72865;DHT22;61000;48.120;11.548;2023-12-14T08:20:57;5.60;99.90
72865;DHT22;61000;48.120;11.548;2023-12-14T08:23:25;5.60;99.90
72865;DHT22;61000;48.120;11.548;2023-12-14T08:25:53;5.60;99.90
72865;DHT22;61000;48.120;11.548;2023-12-14T08:28:22;5.60;99.90
72865;DHT22;61000;48.120;11.548;2023-12-14T08:30:49;5.60;99.90
72865;DHT22;61000;48.120;11.548;2023-12-14T08:33:16;5.60;99.90
72865;DHT22;61000;48.120;11.548;2023-12-14T08:35:43;5.60;99.90
72865;DHT22;61000;48.120;11.548;2023-12-14T08:38:10;5.60;99.90
72865;DHT22;61000;48.120;11.548;2023-12-14T08:40:39;5.60;99.90
72865;DHT22;61000;48.120;11.548;2023-12-14T08:43:06;5.60;99.90
72865;DHT22;61000;48.120;11.548;2023-12-14T08:45:33;5.60;99.90
72865;DHT22;61000;48.120;11.548;2023-12-14T08:48:00;5.70;99.90
72865;DHT22;61000;48.120;11.548;2023-12-14T08:50:26;5.70;99.90
72865;DHT22;61000;48.120;11.548;2023-12-14T08:52:53;5.80;99.90
72865;DHT22;61000;48.120;11.548;2023-12-14T08:55:20;5.80;99.90
72865;DHT22;61000;48.120;11.548;2023-12-14T08:57:49;5.80;99.90
72865;DHT22;61000;48.120;11.548;2023-12-14T09:00:16;5.80;99.90
72865;DHT22;61000;48.120;11.548;2023-12-14T09:02:44;5.80;99.90
72865;DHT22;61000;48.120;11.548;2023-12-14T09:05:11;5.90;99.90
72865;DHT22;61000;48.120;11.548;2023-12-14T09:07:38;5.90;99.90
72865;DHT22;61000;48.120;11.548;2023-12-14T09:10:06;5.90;99.90
72865;DHT22;61000;48.120;11.548;2023-12-14T09:12:34;5.90;99.90
72865;DHT22;61000;48.120;11.548;2023-12-14T09:15:02;5.80;99.90
72865;DHT22;61000;48.120;11.548;2023-12-14T09:17:33;5.90;99.90
72865;DHT22;61000;48.120;11.548;2023-12-14T09:20:02;5.90;99.90
72865;DHT22;61000;48.120;11.548;2023-12-14T09:22:30;5.90;99.90
72865;DHT22;61000;48.120;11.548;2023-12-14T09:25:00;5.90;99.90
72865;DHT22;61000;48.120;11.548;2023-12-14T09:27:38;5.90;99.90
72865;DHT22;61000;48.120;11.548;2023-12-14T09:30:07;5.90;99.90
72865;DHT22;61000;48.120;11.548;2023-12-14T09:32:34;5.90;99.90
72865;DHT22;61000;48.120;11.548;2023-12-14T09:35:01;5.90;99.90
72865;DHT22;61000;48.120;11.548;2023-12-14T09:37:28;5.90;99.90
72865;DHT22;61000;48.120;11.548;2023-12-14T09:39:55;6.00;99.90
72865;DHT22;61000;48.120;11.548;2023-12-14T09:42:22;5.90;99.90
72865;DHT22;61000;48.120;11.548;2023-12-14T09:44:50;5.90;99.90
72865;DHT22;61000;48.120;11.548;2023-12-14T09:47:19;5.90;99.90
72865;DHT22;61000;48.120;11.548;2023-12-14T09:49:48;5.90;99.90
72865;DHT22;61000;48.120;11.548;2023-12-14T09:52:15;5.90;99.90
72865;DHT22;61000;48.120;11.548;2023-12-14T09:54:42;5.90;99.90
72865;DHT22;61000;48.120;11.548;2023-12-14T09:57:09;5.90;99.90
72865;DHT22;61000;48.120;11.548;2023-12-14T09:59:37;6.00;99.90
72865;DHT22;61000;48.120;11.548;2023-12-14T10:02:13;5.90;99.90
72865;DHT22;61000;48.120;11.548;2023-12-14T10:04:43;6.00;99.90
72865;DHT22;61000;48.120;11.548;2023-12-14T10:07:10;6.00;99.90
72865;DHT22;61000;48.120;11.548;2023-12-14T10:09:37;6.00;99.90
72865;DHT22;61000;48.120;11.548;2023-12-14T10:12:06;6.00;99.90
72865;DHT22;61000;48.120;11.548;2023-12-14T10:14:35;6.10;99.90
72865;DHT22;61000;48.120;11.548;2023-12-14T10:17:14;6.10;99.90
72865;DHT22;61000;48.120;11.548;2023-12-14T10:19:44;6.10;99.90
72865;DHT22;61000;48.120;11.548;2023-12-14T10:22:13;6.00;99.90
72865;DHT22;61000;48.120;11.548;2023-12-14T10:24:43;6.10;99.90
72865;DHT22;61000;48.120;11.548;2023-12-14T10:27:10;6.10;99.90
72865;DHT22;61000;48.120;11.548;2023-12-14T10:29:37;6.10;99.90
72865;DHT22;61000;48.120;11.548;2023-12-14T10:32:06;6.10;99.90
72865;DHT22;61000;48.120;11.548;2023-12-14T10:34:34;6.10;99.90
72865;DHT22;61000;48.120;11.548;2023-12-14T10:37:06;6.10;99.90
72865;DHT22;61000;48.120;11.548;2023-12-14T10:39:34;6.10;99.90
72865;DHT22;61000;48.120;11.548;2023-12-14T10:42:03;6.00;99.90
72865;DHT22;61000;48.120;11.548;2023-12-14T10:44:36;6.00;99.90
72865;DHT22;61000;48.120;11.548;2023-12-14T10:47:10;6.00;99.90
72865;DHT22;61000;48.120;11.548;2023-12-14T10:49:46;6.00;99.90
72865;DHT22;61000;48.120;11.548;2023-12-14T10:52:16;6.00;99.90
72865;DHT22;61000;48.120;11.548;2023-12-14T10:54:44;6.00;99.90
72865;DHT22;61000;48.120;11.548;2023-12-14T10:57:12;6.00;99.90
72865;DHT22;61000;48.120;11.548;2023-12-14T10:59:39;6.00;99.90
72865;DHT22;61000;48.120;11.548;2023-12-14T11:02:09;6.00;99.90
72865;DHT22;61000;48.120;11.548;2023-12-14T11:04:54;6.10;99.90
72865;DHT22;61000;48.120;11.548;2023-12-14T11:07:45;6.10;99.90
72865;DHT22;61000;48.120;11.548;2023-12-14T11:10:12;6.20;99.90
72865;DHT22;61000;48.120;11.548;2023-12-14T11:13:00;6.20;99.90
72865;DHT22;61000;48.120;11.548;2023-12-14T11:15:28;6.10;99.90
72865;DHT22;61000;48.120;11.548;2023-12-14T11:18:23;6.20;99.90
72865;DHT22;61000;48.120;11.548;2023-12-14T11:20:53;6.20;99.90
72865;DHT22;61000;48.120;11.548;2023-12-14T11:23:33;6.20;99.90
72865;DHT22;61000;48.120;11.548;2023-12-14T11:26:01;6.20;99.90
72865;DHT22;61000;48.120;11.548;2023-12-14T11:28:32;6.30;99.90
72865;DHT22;61000;48.120;11.548;2023-12-14T11:31:00;6.30;99.90
72865;DHT22;61000;48.120;11.548;2023-12-14T11:33:28;6.40;99.90
72865;DHT22;61000;48.120;11.548;2023-12-14T11:35:55;6.50;99.90
72865;DHT22;61000;48.120;11.548;2023-12-14T11:38:23;6.60;99.90
72865;DHT22;61000;48.120;11.548;2023-12-14T11:40:52;6.70;99.90
72865;DHT22;61000;48.120;11.548;2023-12-14T11:43:19;6.80;99.90
72865;DHT22;61000;48.120;11.548;2023-12-14T11:45:47;6.90;99.90
72865;DHT22;61000;48.120;11.548;2023-12-14T11:48:14;6.90;99.90
72865;DHT22;61000;48.120;11.548;2023-12-14T11:50:42;6.90;99.90
72865;DHT22;61000;48.120;11.548;2023-12-14T11:53:10;6.90;99.90
72865;DHT22;61000;48.120;11.548;2023-12-14T11:55:41;6.90;99.90
72865;DHT22;61000;48.120;11.548;2023-12-14T11:58:11;6.90;99.90
72865;DHT22;61000;48.120;11.548;2023-12-14T12:00:39;6.90;99.90
72865;DHT22;61000;48.120;11.548;2023-12-14T12:03:10;7.00;99.90
72865;DHT22;61000;48.120;11.548;2023-12-14T12:05:39;7.00;99.90
72865;DHT22;61000;48.120;11.548;2023-12-14T12:08:06;7.10;99.90
72865;DHT22;61000;48.120;11.548;2023-12-14T12:10:34;7.10;99.90
72865;DHT22;61000;48.120;11.548;2023-12-14T12:13:06;7.10;99.90
72865;DHT22;61000;48.120;11.548;2023-12-14T12:15:35;7.10;99.90
72865;DHT22;61000;48.120;11.548;2023-12-14T12:18:05;7.10;99.90
72865;DHT22;61000;48.120;11.548;2023-12-14T12:20:33;7.10;99.90
72865;DHT22;61000;48.120;11.548;2023-12-14T12:23:01;7.10;99.90
72865;DHT22;61000;48.120;11.548;2023-12-14T12:25:29;7.10;99.90
72865;DHT22;61000;48.120;11.548;2023-12-14T12:27:57;7.20;99.90
72865;DHT22;61000;48.120;11.548;2023-12-14T12:30:24;7.20;99.90
72865;DHT22;61000;48.120;11.548;2023-12-14T12:32:53;7.10;99.90
72865;DHT22;61000;48.120;11.548;2023-12-14T12:35:21;7.10;99.90
72865;DHT22;61000;48.120;11.548;2023-12-14T12:37:49;7.10;99.90
72865;DHT22;61000;48.120;11.548;2023-12-14T12:40:19;7.00;99.90
72865;DHT22;61000;48.120;11.548;2023-12-14T12:42:46;7.00;99.90
72865;DHT22;61000;48.120;11.548;2023-12-14T12:45:14;7.00;99.90
72865;DHT22;61000;48.120;11.548;2023-12-14T12:47:42;7.00;99.90
72865;DHT22;61000;48.120;11.548;2023-12-14T12:50:11;7.00;99.90
72865;DHT22;61000;48.120;11.548;2023-12-14T12:52:38;7.00;99.90
72865;DHT22;61000;48.120;11.548;2023-12-14T12:55:06;7.00;99.90
72865;DHT22;61000;48.120;11.548;2023-12-14T12:57:33;7.00;99.90
72865;DHT22;61000;48.120;11.548;2023-12-14T13:00:00;7.10;99.90
72865;DHT22;61000;48.120;11.548;2023-12-14T13:02:27;7.00;99.90
72865;DHT22;61000;48.120;11.548;2023-12-14T13:04:53;7.00;99.90
72865;DHT22;61000;48.120;11.548;2023-12-14T13:07:22;7.00;99.90
72865;DHT22;61000;48.120;11.548;2023-12-14T13:09:49;7.00;99.90
72865;DHT22;61000;48.120;11.548;2023-12-14T13:12:16;7.10;99.90
72865;DHT22;61000;48.120;11.548;2023-12-14T13:14:42;7.10;99.90
72865;DHT22;61000;48.120;11.548;2023-12-14T13:17:09;7.10;99.90
72865;DHT22;61000;48.120;11.548;2023-12-14T13:19:36;7.10;99.90
72865;DHT22;61000;48.120;11.548;2023-12-14T13:22:03;7.10;99.90
72865;DHT22;61000;48.120;11.548;2023-12-14T13:24:31;7.10;99.90
72865;DHT22;61000;48.120;11.548;2023-12-14T13:26:58;7.00;99.90
72865;DHT22;61000;48.120;11.548;2023-12-14T13:29:25;7.00;99.90
72865;DHT22;61000;48.120;11.548;2023-12-14T13:31:52;7.00;99.90
72865;DHT22;61000;48.120;11.548;2023-12-14T13:34:19;7.00;99.90
72865;DHT22;61000;48.120;11.548;2023-12-14T13:36:46;7.00;99.90
72865;DHT22;61000;48.120;11.548;2023-12-14T13:39:13;7.10;99.90
72865;DHT22;61000;48.120;11.548;2023-12-14T13:41:42;7.00;99.90
72865;DHT22;61000;48.120;11.548;2023-12-14T13:44:08;7.10;99.90
72865;DHT22;61000;48.120;11.548;2023-12-14T13:46:35;7.10;99.90
72865;DHT22;61000;48.120;11.548;2023-12-14T13:49:02;7.10;99.90
72865;DHT22;61000;48.120;11.548;2023-12-14T13:51:29;7.10;99.90
72865;DHT22;61000;48.120;11.548;2023-12-14T13:53:56;7.10;99.90
72865;DHT22;61000;48.120;11.548;2023-12-14T13:56:23;7.10;99.90
72865;DHT22;61000;48.120;11.548;2023-12-14T13:58:51;7.10;99.90
72865;DHT22;61000;48.120;11.548;2023-12-14T14:01:18;7.10;99.90
72865;DHT22;61000;48.120;11.548;2023-12-14T14:03:45;7.10;99.90
72865;DHT22;61000;48.120;11.548;2023-12-14T14:06:13;7.00;99.90
72865;DHT22;61000;48.120;11.548;2023-12-14T14:08:40;7.00;99.90
72865;DHT22;61000;48.120;11.548;2023-12-14T14:11:07;7.00;99.90
72865;DHT22;61000;48.120;11.548;2023-12-14T14:13:34;7.00;99.90
72865;DHT22;61000;48.120;11.548;2023-12-14T14:16:02;7.00;99.90
72865;DHT22;61000;48.120;11.548;2023-12-14T14:18:30;7.00;99.90
72865;DHT22;61000;48.120;11.548;2023-12-14T14:20:57;7.00;99.90
72865;DHT22;61000;48.120;11.548;2023-12-14T14:23:24;6.90;99.90
72865;DHT22;61000;48.120;11.548;2023-12-14T14:25:52;6.80;99.90
72865;DHT22;61000;48.120;11.548;2023-12-14T14:28:20;6.80;99.90
72865;DHT22;61000;48.120;11.548;2023-12-14T14:30:47;6.80;99.90
72865;DHT22;61000;48.120;11.548;2023-12-14T14:33:15;6.80;99.90
72865;DHT22;61000;48.120;11.548;2023-12-14T14:35:44;6.70;99.90
72865;DHT22;61000;48.120;11.548;2023-12-14T14:38:11;6.70;99.90
72865;DHT22;61000;48.120;11.548;2023-12-14T14:40:38;6.70;99.90
72865;DHT22;61000;48.120;11.548;2023-12-14T14:43:07;6.70;99.90
72865;DHT22;61000;48.120;11.548;2023-12-14T14:45:35;6.60;99.90
72865;DHT22;61000;48.120;11.548;2023-12-14T14:48:04;6.70;99.90
72865;DHT22;61000;48.120;11.548;2023-12-14T14:50:35;6.70;99.90
72865;DHT22;61000;48.120;11.548;2023-12-14T14:53:03;6.70;99.90
72865;DHT22;61000;48.120;11.548;2023-12-14T14:55:30;6.60;99.90
72865;DHT22;61000;48.120;11.548;2023-12-14T14:58:01;6.60;99.90
72865;DHT22;61000;48.120;11.548;2023-12-14T15:00:28;6.60;99.90
72865;DHT22;61000;48.120;11.548;2023-12-14T15:02:55;6.60;99.90
72865;DHT22;61000;48.120;11.548;2023-12-14T15:05:22;6.60;99.90
72865;DHT22;61000;48.120;11.548;2023-12-14T15:07:50;6.50;99.90
72865;DHT22;61000;48.120;11.548;2023-12-14T15:10:17;6.50;99.90
72865;DHT22;61000;48.120;11.548;2023-12-14T15:12:44;6.50;99.90
72865;DHT22;61000;48.120;11.548;2023-12-14T15:15:11;6.50;99.90
72865;DHT22;61000;48.120;11.548;2023-12-14T15:17:38;6.50;99.90
72865;DHT22;61000;48.120;11.548;2023-12-14T15:20:05;6.50;99.90
72865;DHT22;61000;48.120;11.548;2023-12-14T15:22:33;6.50;99.90
72865;DHT22;61000;48.120;11.548;2023-12-14T15:25:03;6.50;99.90
72865;DHT22;61000;48.120;11.548;2023-12-14T15:27:30;6.50;99.90
72865;DHT22;61000;48.120;11.548;2023-12-14T15:29:59;6.50;99.90
72865;DHT22;61000;48.120;11.548;2023-12-14T15:32:26;6.50;99.90
72865;DHT22;61000;48.120;11.548;2023-12-14T15:34:52;6.30;99.90
72865;DHT22;61000;48.120;11.548;2023-12-14T15:37:20;6.50;99.90